Saratov, Russia
Current Conditions -  °F | °C
As of 5:30 PM on Friday 24 Oct 2014 (Local Time) from UWSS Reporting Station
Clear Clear  
Wind Chill: 11°   Ceiling: Unl
Heat Index: 23°   Visibility: 6mi
Dew Point: 12°   Wind: 13mph
Humidity: 63%   Direction: 330°NNW
Pressure: 30.3"   Gusts: NA
Location:  51.57°N, 46.03°E
Report Text: UWSS 241430Z 33006MPS CAVOK M05/M11 Q1026 300///60 NOSIG RMKQFE756
Loading
Personal Weather Stations






























Interactive Weather Map
Tropical Storm Tracking
New forecast layout! Learn more

10-Day Weather Forecast

Advertisements
Track Severe Weather on mobile